Entre Rios de Minas, Brazil
Current Conditions -  °F | °C
As of 2:00 PM on Saturday 25 Oct 2014 (Local Time) from SBBQ Reporting Station
Overcast Overcast  
Wind Chill: 70°   Ceiling: 7000
Heat Index: 70°   Visibility: 6mi
Dew Point: 59°   Wind: 3mph
Humidity: 68%   Direction: 210°SSW
Pressure: 30.12"   Gusts: NA
Location:  20.67°S, 44.07°W
Report Text: SBBQ 251600Z 21003KT 9999 SCT049 OVC070 21/15 Q1020
Loading
Personal Weather Stations






























Interactive Weather Map
Tropical Storm Tracking
New forecast layout! Learn more

10-Day Weather Forecast

Advertisements
Track Severe Weather on mobile